sensor_id;sensor_type;location;lat;lon;timestamp;P1;durP1;ratioP1;P2;durP2;ratioP2
45356;SDS011;31092;51.924;21.448;2023-03-20T00:00:32;7.88;;;5.05;;
45356;SDS011;31092;51.924;21.448;2023-03-20T00:03:00;6.47;;;5.22;;
45356;SDS011;31092;51.924;21.448;2023-03-20T00:05:27;12.38;;;6.15;;
45356;SDS011;31092;51.924;21.448;2023-03-20T00:07:54;13.40;;;6.07;;
45356;SDS011;31092;51.924;21.448;2023-03-20T00:10:21;13.50;;;4.63;;
45356;SDS011;31092;51.924;21.448;2023-03-20T00:12:53;21.10;;;7.20;;
45356;SDS011;31092;51.924;21.448;2023-03-20T00:15:26;8.60;;;5.60;;
45356;SDS011;31092;51.924;21.448;2023-03-20T00:17:52;14.95;;;5.30;;
45356;SDS011;31092;51.924;21.448;2023-03-20T00:20:18;12.02;;;4.85;;
45356;SDS011;31092;51.924;21.448;2023-03-20T00:22:43;11.00;;;6.45;;
45356;SDS011;31092;51.924;21.448;2023-03-20T00:25:12;11.18;;;4.40;;
45356;SDS011;31092;51.924;21.448;2023-03-20T00:27:40;14.40;;;6.25;;
45356;SDS011;31092;51.924;21.448;2023-03-20T00:30:18;8.98;;;3.92;;
45356;SDS011;31092;51.924;21.448;2023-03-20T00:32:47;7.32;;;4.45;;
45356;SDS011;31092;51.924;21.448;2023-03-20T00:35:18;18.80;;;6.50;;
45356;SDS011;31092;51.924;21.448;2023-03-20T00:37:50;14.63;;;7.30;;
45356;SDS011;31092;51.924;21.448;2023-03-20T00:40:17;10.27;;;6.05;;
45356;SDS011;31092;51.924;21.448;2023-03-20T00:42:43;19.25;;;7.65;;
45356;SDS011;31092;51.924;21.448;2023-03-20T00:45:18;19.05;;;6.53;;
45356;SDS011;31092;51.924;21.448;2023-03-20T00:47:46;15.02;;;7.53;;
45356;SDS011;31092;51.924;21.448;2023-03-20T00:50:15;10.35;;;6.43;;
45356;SDS011;31092;51.924;21.448;2023-03-20T00:52:43;6.37;;;3.47;;
45356;SDS011;31092;51.924;21.448;2023-03-20T00:55:09;4.45;;;4.05;;
45356;SDS011;31092;51.924;21.448;2023-03-20T00:57:45;4.93;;;3.58;;
45356;SDS011;31092;51.924;21.448;2023-03-20T01:00:34;7.15;;;3.75;;
45356;SDS011;31092;51.924;21.448;2023-03-20T01:05:38;4.75;;;3.65;;
45356;SDS011;31092;51.924;21.448;2023-03-20T01:08:08;15.50;;;5.32;;
45356;SDS011;31092;51.924;21.448;2023-03-20T01:10:45;16.77;;;6.28;;
45356;SDS011;31092;51.924;21.448;2023-03-20T01:13:19;18.10;;;6.10;;
45356;SDS011;31092;51.924;21.448;2023-03-20T01:15:55;20.95;;;3.45;;
45356;SDS011;31092;51.924;21.448;2023-03-20T01:18:22;10.15;;;6.13;;
45356;SDS011;31092;51.924;21.448;2023-03-20T01:20:49;14.23;;;5.65;;
45356;SDS011;31092;51.924;21.448;2023-03-20T01:23:16;14.52;;;5.05;;
45356;SDS011;31092;51.924;21.448;2023-03-20T01:25:43;16.98;;;4.22;;
45356;SDS011;31092;51.924;21.448;2023-03-20T01:28:13;7.68;;;4.72;;
45356;SDS011;31092;51.924;21.448;2023-03-20T01:30:41;15.20;;;5.57;;
45356;SDS011;31092;51.924;21.448;2023-03-20T01:33:15;17.38;;;4.00;;
45356;SDS011;31092;51.924;21.448;2023-03-20T01:35:42;7.68;;;4.70;;
45356;SDS011;31092;51.924;21.448;2023-03-20T01:38:27;6.72;;;4.05;;
45356;SDS011;31092;51.924;21.448;2023-03-20T01:40:56;11.40;;;4.47;;
45356;SDS011;31092;51.924;21.448;2023-03-20T01:43:28;13.82;;;5.95;;
45356;SDS011;31092;51.924;21.448;2023-03-20T01:56:46;12.65;;;5.68;;
45356;SDS011;31092;51.924;21.448;2023-03-20T01:59:18;13.35;;;5.18;;
45356;SDS011;31092;51.924;21.448;2023-03-20T02:01:55;9.98;;;7.03;;
45356;SDS011;31092;51.924;21.448;2023-03-20T02:04:23;10.85;;;4.35;;
45356;SDS011;31092;51.924;21.448;2023-03-20T02:06:53;16.42;;;5.78;;
45356;SDS011;31092;51.924;21.448;2023-03-20T02:09:19;8.13;;;4.50;;
45356;SDS011;31092;51.924;21.448;2023-03-20T02:11:45;14.63;;;5.85;;
45356;SDS011;31092;51.924;21.448;2023-03-20T02:14:12;7.65;;;3.67;;
45356;SDS011;31092;51.924;21.448;2023-03-20T02:16:39;11.40;;;5.70;;
45356;SDS011;31092;51.924;21.448;2023-03-20T02:19:05;12.10;;;4.80;;
45356;SDS011;31092;51.924;21.448;2023-03-20T02:24:40;8.50;;;4.22;;
45356;SDS011;31092;51.924;21.448;2023-03-20T02:30:19;11.23;;;5.50;;
45356;SDS011;31092;51.924;21.448;2023-03-20T02:38:50;15.75;;;6.97;;
45356;SDS011;31092;51.924;21.448;2023-03-20T02:41:38;7.28;;;4.07;;
45356;SDS011;31092;51.924;21.448;2023-03-20T02:58:25;5.82;;;3.65;;
45356;SDS011;31092;51.924;21.448;2023-03-20T03:01:13;9.60;;;5.43;;
45356;SDS011;31092;51.924;21.448;2023-03-20T03:03:43;9.65;;;3.55;;
45356;SDS011;31092;51.924;21.448;2023-03-20T03:06:19;14.60;;;5.82;;
45356;SDS011;31092;51.924;21.448;2023-03-20T03:08:55;13.67;;;4.60;;
45356;SDS011;31092;51.924;21.448;2023-03-20T03:11:26;16.85;;;6.05;;
45356;SDS011;31092;51.924;21.448;2023-03-20T03:13:53;10.60;;;4.22;;
45356;SDS011;31092;51.924;21.448;2023-03-20T03:16:25;10.52;;;4.03;;
45356;SDS011;31092;51.924;21.448;2023-03-20T03:19:02;7.10;;;4.13;;
45356;SDS011;31092;51.924;21.448;2023-03-20T03:21:32;10.32;;;6.57;;
45356;SDS011;31092;51.924;21.448;2023-03-20T03:24:01;16.88;;;6.22;;
45356;SDS011;31092;51.924;21.448;2023-03-20T03:26:29;6.68;;;4.82;;
45356;SDS011;31092;51.924;21.448;2023-03-20T03:31:25;9.68;;;4.22;;
45356;SDS011;31092;51.924;21.448;2023-03-20T03:33:54;11.25;;;6.15;;
45356;SDS011;31092;51.924;21.448;2023-03-20T03:41:30;16.27;;;6.82;;
45356;SDS011;31092;51.924;21.448;2023-03-20T03:44:06;9.05;;;5.55;;
45356;SDS011;31092;51.924;21.448;2023-03-20T03:49:22;10.52;;;5.07;;
45356;SDS011;31092;51.924;21.448;2023-03-20T03:51:53;14.25;;;6.40;;
45356;SDS011;31092;51.924;21.448;2023-03-20T03:54:23;12.85;;;5.95;;
45356;SDS011;31092;51.924;21.448;2023-03-20T03:56:52;10.82;;;6.05;;
45356;SDS011;31092;51.924;21.448;2023-03-20T03:59:22;11.90;;;5.28;;
45356;SDS011;31092;51.924;21.448;2023-03-20T04:02:02;14.27;;;6.45;;
45356;SDS011;31092;51.924;21.448;2023-03-20T04:04:32;11.48;;;4.70;;
45356;SDS011;31092;51.924;21.448;2023-03-20T04:06:59;9.57;;;3.72;;
45356;SDS011;31092;51.924;21.448;2023-03-20T04:09:26;7.38;;;4.18;;
45356;SDS011;31092;51.924;21.448;2023-03-20T04:11:53;5.80;;;3.58;;
45356;SDS011;31092;51.924;21.448;2023-03-20T04:14:18;8.90;;;5.03;;
45356;SDS011;31092;51.924;21.448;2023-03-20T04:16:44;7.22;;;5.05;;
45356;SDS011;31092;51.924;21.448;2023-03-20T04:19:10;9.45;;;6.10;;
45356;SDS011;31092;51.924;21.448;2023-03-20T04:21:36;15.43;;;5.85;;
45356;SDS011;31092;51.924;21.448;2023-03-20T04:24:02;19.20;;;7.18;;
45356;SDS011;31092;51.924;21.448;2023-03-20T04:26:28;13.35;;;6.32;;
45356;SDS011;31092;51.924;21.448;2023-03-20T04:28:53;18.27;;;5.65;;
45356;SDS011;31092;51.924;21.448;2023-03-20T04:31:19;14.27;;;4.85;;
45356;SDS011;31092;51.924;21.448;2023-03-20T04:33:45;10.57;;;5.15;;
45356;SDS011;31092;51.924;21.448;2023-03-20T04:36:11;11.75;;;5.45;;
45356;SDS011;31092;51.924;21.448;2023-03-20T04:38:37;7.82;;;5.45;;
45356;SDS011;31092;51.924;21.448;2023-03-20T04:41:02;5.18;;;4.07;;
45356;SDS011;31092;51.924;21.448;2023-03-20T04:43:28;7.47;;;4.35;;
45356;SDS011;31092;51.924;21.448;2023-03-20T04:45:54;7.63;;;4.03;;
45356;SDS011;31092;51.924;21.448;2023-03-20T04:48:20;12.77;;;4.78;;
45356;SDS011;31092;51.924;21.448;2023-03-20T04:50:45;12.32;;;4.97;;
45356;SDS011;31092;51.924;21.448;2023-03-20T04:53:13;9.65;;;5.15;;
45356;SDS011;31092;51.924;21.448;2023-03-20T04:55:39;10.45;;;4.28;;
45356;SDS011;31092;51.924;21.448;2023-03-20T04:58:05;7.43;;;5.13;;
45356;SDS011;31092;51.924;21.448;2023-03-20T05:00:31;10.73;;;4.85;;
45356;SDS011;31092;51.924;21.448;2023-03-20T05:02:57;8.75;;;5.63;;
45356;SDS011;31092;51.924;21.448;2023-03-20T05:05:23;8.15;;;4.28;;
45356;SDS011;31092;51.924;21.448;2023-03-20T05:07:48;12.77;;;6.35;;
45356;SDS011;31092;51.924;21.448;2023-03-20T05:10:15;7.72;;;4.32;;
45356;SDS011;31092;51.924;21.448;2023-03-20T05:12:41;11.85;;;5.40;;
45356;SDS011;31092;51.924;21.448;2023-03-20T05:15:07;7.50;;;4.35;;
45356;SDS011;31092;51.924;21.448;2023-03-20T05:17:33;10.98;;;6.60;;
45356;SDS011;31092;51.924;21.448;2023-03-20T05:19:58;6.75;;;5.68;;
45356;SDS011;31092;51.924;21.448;2023-03-20T05:22:24;9.85;;;5.95;;
45356;SDS011;31092;51.924;21.448;2023-03-20T05:24:50;9.68;;;4.85;;
45356;SDS011;31092;51.924;21.448;2023-03-20T05:27:15;16.55;;;6.45;;
45356;SDS011;31092;51.924;21.448;2023-03-20T05:29:41;8.20;;;4.70;;
45356;SDS011;31092;51.924;21.448;2023-03-20T05:32:13;12.95;;;7.57;;
45356;SDS011;31092;51.924;21.448;2023-03-20T05:34:48;17.10;;;8.48;;
45356;SDS011;31092;51.924;21.448;2023-03-20T05:37:14;6.07;;;4.63;;
45356;SDS011;31092;51.924;21.448;2023-03-20T05:39:40;11.48;;;5.50;;
45356;SDS011;31092;51.924;21.448;2023-03-20T05:42:05;10.43;;;4.63;;
45356;SDS011;31092;51.924;21.448;2023-03-20T05:44:30;8.98;;;5.75;;
45356;SDS011;31092;51.924;21.448;2023-03-20T05:46:56;14.27;;;5.78;;
45356;SDS011;31092;51.924;21.448;2023-03-20T05:49:21;7.88;;;5.18;;
45356;SDS011;31092;51.924;21.448;2023-03-20T05:51:47;14.43;;;7.30;;
45356;SDS011;31092;51.924;21.448;2023-03-20T05:54:12;17.65;;;6.50;;
45356;SDS011;31092;51.924;21.448;2023-03-20T05:56:38;15.48;;;7.82;;
45356;SDS011;31092;51.924;21.448;2023-03-20T05:59:03;18.77;;;7.40;;
45356;SDS011;31092;51.924;21.448;2023-03-20T06:01:29;7.35;;;5.63;;
45356;SDS011;31092;51.924;21.448;2023-03-20T06:03:55;10.77;;;6.65;;
45356;SDS011;31092;51.924;21.448;2023-03-20T06:06:20;12.88;;;6.85;;
45356;SDS011;31092;51.924;21.448;2023-03-20T06:08:46;16.70;;;7.72;;
45356;SDS011;31092;51.924;21.448;2023-03-20T06:11:11;13.55;;;6.53;;
45356;SDS011;31092;51.924;21.448;2023-03-20T06:13:37;16.17;;;6.85;;
45356;SDS011;31092;51.924;21.448;2023-03-20T06:16:02;23.10;;;8.25;;
45356;SDS011;31092;51.924;21.448;2023-03-20T06:18:28;15.02;;;6.43;;
45356;SDS011;31092;51.924;21.448;2023-03-20T06:20:54;19.60;;;7.22;;
45356;SDS011;31092;51.924;21.448;2023-03-20T06:23:21;21.23;;;6.78;;
45356;SDS011;31092;51.924;21.448;2023-03-20T06:25:47;17.08;;;7.43;;
45356;SDS011;31092;51.924;21.448;2023-03-20T06:28:13;15.68;;;8.10;;
45356;SDS011;31092;51.924;21.448;2023-03-20T06:30:38;13.75;;;6.40;;
45356;SDS011;31092;51.924;21.448;2023-03-20T06:33:07;13.90;;;7.75;;
45356;SDS011;31092;51.924;21.448;2023-03-20T06:35:34;14.50;;;8.40;;
45356;SDS011;31092;51.924;21.448;2023-03-20T06:38:00;15.63;;;7.90;;
45356;SDS011;31092;51.924;21.448;2023-03-20T06:40:26;18.58;;;7.70;;
45356;SDS011;31092;51.924;21.448;2023-03-20T06:42:52;20.48;;;7.95;;
45356;SDS011;31092;51.924;21.448;2023-03-20T06:45:19;19.00;;;9.13;;
45356;SDS011;31092;51.924;21.448;2023-03-20T06:47:45;13.10;;;8.80;;
45356;SDS011;31092;51.924;21.448;2023-03-20T06:50:11;15.52;;;8.23;;
45356;SDS011;31092;51.924;21.448;2023-03-20T06:52:37;14.73;;;7.15;;
45356;SDS011;31092;51.924;21.448;2023-03-20T06:55:04;16.67;;;7.30;;
45356;SDS011;31092;51.924;21.448;2023-03-20T06:57:30;15.40;;;7.10;;
45356;SDS011;31092;51.924;21.448;2023-03-20T06:59:56;18.63;;;7.80;;
45356;SDS011;31092;51.924;21.448;2023-03-20T07:02:21;18.60;;;7.32;;
45356;SDS011;31092;51.924;21.448;2023-03-20T07:04:48;17.85;;;7.30;;
45356;SDS011;31092;51.924;21.448;2023-03-20T07:07:13;13.82;;;7.82;;
45356;SDS011;31092;51.924;21.448;2023-03-20T07:09:39;21.02;;;8.80;;
45356;SDS011;31092;51.924;21.448;2023-03-20T07:12:08;14.48;;;8.02;;
45356;SDS011;31092;51.924;21.448;2023-03-20T07:17:00;21.10;;;7.15;;
45356;SDS011;31092;51.924;21.448;2023-03-20T07:19:26;13.95;;;7.53;;
45356;SDS011;31092;51.924;21.448;2023-03-20T07:21:53;13.50;;;6.53;;
45356;SDS011;31092;51.924;21.448;2023-03-20T07:24:22;12.23;;;6.65;;
45356;SDS011;31092;51.924;21.448;2023-03-20T07:26:49;20.58;;;8.32;;
45356;SDS011;31092;51.924;21.448;2023-03-20T07:29:14;12.10;;;6.22;;
45356;SDS011;31092;51.924;21.448;2023-03-20T07:31:40;16.65;;;7.85;;
45356;SDS011;31092;51.924;21.448;2023-03-20T07:34:06;13.18;;;7.10;;
45356;SDS011;31092;51.924;21.448;2023-03-20T07:36:31;13.38;;;7.63;;
45356;SDS011;31092;51.924;21.448;2023-03-20T07:38:57;12.93;;;7.22;;
45356;SDS011;31092;51.924;21.448;2023-03-20T07:41:22;16.70;;;7.30;;
45356;SDS011;31092;51.924;21.448;2023-03-20T07:43:48;10.02;;;6.18;;
45356;SDS011;31092;51.924;21.448;2023-03-20T07:46:13;18.67;;;9.40;;
45356;SDS011;31092;51.924;21.448;2023-03-20T07:48:39;11.98;;;6.80;;
45356;SDS011;31092;51.924;21.448;2023-03-20T07:51:05;14.10;;;6.88;;
45356;SDS011;31092;51.924;21.448;2023-03-20T07:53:30;15.82;;;7.93;;
45356;SDS011;31092;51.924;21.448;2023-03-20T07:55:56;17.17;;;6.85;;
45356;SDS011;31092;51.924;21.448;2023-03-20T07:58:21;15.90;;;7.53;;
45356;SDS011;31092;51.924;21.448;2023-03-20T08:00:47;27.15;;;8.90;;
45356;SDS011;31092;51.924;21.448;2023-03-20T08:03:12;26.27;;;8.65;;
45356;SDS011;31092;51.924;21.448;2023-03-20T08:05:38;17.40;;;7.47;;
45356;SDS011;31092;51.924;21.448;2023-03-20T08:08:04;15.52;;;8.55;;
45356;SDS011;31092;51.924;21.448;2023-03-20T08:10:30;13.85;;;7.40;;
45356;SDS011;31092;51.924;21.448;2023-03-20T08:12:56;21.33;;;7.97;;
45356;SDS011;31092;51.924;21.448;2023-03-20T08:15:22;15.50;;;7.05;;
45356;SDS011;31092;51.924;21.448;2023-03-20T08:17:47;14.15;;;7.10;;
45356;SDS011;31092;51.924;21.448;2023-03-20T08:20:13;15.98;;;7.78;;
45356;SDS011;31092;51.924;21.448;2023-03-20T08:22:40;11.77;;;7.45;;
45356;SDS011;31092;51.924;21.448;2023-03-20T08:25:07;16.42;;;7.80;;
45356;SDS011;31092;51.924;21.448;2023-03-20T08:27:43;14.32;;;8.07;;
45356;SDS011;31092;51.924;21.448;2023-03-20T08:30:27;12.88;;;7.75;;
45356;SDS011;31092;51.924;21.448;2023-03-20T08:32:54;21.70;;;8.80;;
45356;SDS011;31092;51.924;21.448;2023-03-20T08:35:20;19.90;;;9.20;;
45356;SDS011;31092;51.924;21.448;2023-03-20T08:37:46;14.38;;;7.50;;
45356;SDS011;31092;51.924;21.448;2023-03-20T08:42:57;19.10;;;8.48;;
45356;SDS011;31092;51.924;21.448;2023-03-20T08:45:41;15.52;;;7.45;;
45356;SDS011;31092;51.924;21.448;2023-03-20T08:48:09;16.38;;;8.52;;
45356;SDS011;31092;51.924;21.448;2023-03-20T08:50:35;14.25;;;7.88;;
45356;SDS011;31092;51.924;21.448;2023-03-20T08:53:12;15.38;;;7.03;;
45356;SDS011;31092;51.924;21.448;2023-03-20T08:55:38;18.27;;;8.70;;
45356;SDS011;31092;51.924;21.448;2023-03-20T08:58:04;14.60;;;7.68;;
45356;SDS011;31092;51.924;21.448;2023-03-20T09:01:02;9.52;;;6.28;;
45356;SDS011;31092;51.924;21.448;2023-03-20T09:04:14;18.75;;;8.48;;
45356;SDS011;31092;51.924;21.448;2023-03-20T09:06:40;11.45;;;6.68;;
45356;SDS011;31092;51.924;21.448;2023-03-20T09:09:05;11.32;;;6.13;;
45356;SDS011;31092;51.924;21.448;2023-03-20T09:11:32;12.30;;;6.03;;
45356;SDS011;31092;51.924;21.448;2023-03-20T09:14:18;11.50;;;5.85;;
45356;SDS011;31092;51.924;21.448;2023-03-20T09:20:08;10.55;;;5.68;;
45356;SDS011;31092;51.924;21.448;2023-03-20T09:22:37;12.93;;;6.30;;
45356;SDS011;31092;51.924;21.448;2023-03-20T09:27:33;10.50;;;5.90;;
45356;SDS011;31092;51.924;21.448;2023-03-20T09:36:44;9.60;;;5.13;;
45356;SDS011;31092;51.924;21.448;2023-03-20T09:48:57;12.32;;;5.80;;
45356;SDS011;31092;51.924;21.448;2023-03-20T09:52:00;12.73;;;6.25;;
45356;SDS011;31092;51.924;21.448;2023-03-20T09:58:53;16.25;;;7.28;;
45356;SDS011;31092;51.924;21.448;2023-03-20T10:01:22;12.07;;;6.35;;
45356;SDS011;31092;51.924;21.448;2023-03-20T10:06:55;13.73;;;6.35;;
45356;SDS011;31092;51.924;21.448;2023-03-20T10:23:21;14.38;;;6.60;;
45356;SDS011;31092;51.924;21.448;2023-03-20T10:29:33;7.00;;;5.22;;
45356;SDS011;31092;51.924;21.448;2023-03-20T10:58:20;10.73;;;5.82;;
45356;SDS011;31092;51.924;21.448;2023-03-20T11:03:28;14.23;;;7.10;;
45356;SDS011;31092;51.924;21.448;2023-03-20T11:05:59;10.10;;;5.65;;
45356;SDS011;31092;51.924;21.448;2023-03-20T11:09:18;14.07;;;8.02;;
45356;SDS011;31092;51.924;21.448;2023-03-20T11:15:33;8.68;;;5.80;;
45356;SDS011;31092;51.924;21.448;2023-03-20T11:28:47;12.15;;;6.20;;
45356;SDS011;31092;51.924;21.448;2023-03-20T11:34:35;9.38;;;5.75;;
45356;SDS011;31092;51.924;21.448;2023-03-20T11:37:19;6.68;;;5.18;;
45356;SDS011;31092;51.924;21.448;2023-03-20T11:40:09;7.95;;;5.90;;
45356;SDS011;31092;51.924;21.448;2023-03-20T11:43:25;7.78;;;5.18;;
45356;SDS011;31092;51.924;21.448;2023-03-20T11:45:45;6.75;;;4.38;;
45356;SDS011;31092;51.924;21.448;2023-03-20T11:48:15;8.30;;;5.00;;
45356;SDS011;31092;51.924;21.448;2023-03-20T11:51:21;7.15;;;4.22;;
45356;SDS011;31092;51.924;21.448;2023-03-20T11:54:02;5.95;;;4.50;;
45356;SDS011;31092;51.924;21.448;2023-03-20T11:56:40;7.28;;;4.72;;
45356;SDS011;31092;51.924;21.448;2023-03-20T11:59:18;9.60;;;5.38;;
45356;SDS011;31092;51.924;21.448;2023-03-20T12:01:58;9.73;;;4.68;;
45356;SDS011;31092;51.924;21.448;2023-03-20T12:04:33;6.60;;;3.58;;
45356;SDS011;31092;51.924;21.448;2023-03-20T12:07:11;9.13;;;4.72;;
45356;SDS011;31092;51.924;21.448;2023-03-20T12:12:35;8.23;;;4.17;;
45356;SDS011;31092;51.924;21.448;2023-03-20T12:18:16;20.85;;;9.77;;
45356;SDS011;31092;51.924;21.448;2023-03-20T12:21:03;11.23;;;6.32;;
45356;SDS011;31092;51.924;21.448;2023-03-20T12:23:44;5.13;;;4.53;;
45356;SDS011;31092;51.924;21.448;2023-03-20T12:42:47;7.60;;;5.18;;
45356;SDS011;31092;51.924;21.448;2023-03-20T12:45:39;8.45;;;4.18;;
45356;SDS011;31092;51.924;21.448;2023-03-20T12:55:16;13.75;;;4.78;;
45356;SDS011;31092;51.924;21.448;2023-03-20T13:20:23;10.33;;;4.47;;
45356;SDS011;31092;51.924;21.448;2023-03-20T13:36:54;9.88;;;4.65;;
45356;SDS011;31092;51.924;21.448;2023-03-20T13:39:32;6.45;;;4.32;;
45356;SDS011;31092;51.924;21.448;2023-03-20T13:42:05;12.27;;;5.57;;
45356;SDS011;31092;51.924;21.448;2023-03-20T13:44:37;15.05;;;4.40;;
45356;SDS011;31092;51.924;21.448;2023-03-20T13:47:22;4.20;;;3.25;;
45356;SDS011;31092;51.924;21.448;2023-03-20T13:50:23;7.68;;;4.82;;
45356;SDS011;31092;51.924;21.448;2023-03-20T13:52:56;6.97;;;4.15;;
45356;SDS011;31092;51.924;21.448;2023-03-20T14:04:08;6.68;;;4.15;;
45356;SDS011;31092;51.924;21.448;2023-03-20T14:06:55;10.10;;;4.15;;
45356;SDS011;31092;51.924;21.448;2023-03-20T14:12:07;11.63;;;4.38;;
45356;SDS011;31092;51.924;21.448;2023-03-20T14:14:48;8.82;;;3.65;;
45356;SDS011;31092;51.924;21.448;2023-03-20T14:20:10;10.88;;;4.53;;
45356;SDS011;31092;51.924;21.448;2023-03-20T14:22:44;9.00;;;4.10;;
45356;SDS011;31092;51.924;21.448;2023-03-20T14:25:21;9.20;;;4.15;;
45356;SDS011;31092;51.924;21.448;2023-03-20T14:28:23;9.02;;;3.92;;
45356;SDS011;31092;51.924;21.448;2023-03-20T14:31:10;6.35;;;4.22;;
45356;SDS011;31092;51.924;21.448;2023-03-20T14:33:41;10.35;;;4.47;;
45356;SDS011;31092;51.924;21.448;2023-03-20T14:41:59;4.63;;;3.25;;
45356;SDS011;31092;51.924;21.448;2023-03-20T14:45:28;7.38;;;3.03;;
45356;SDS011;31092;51.924;21.448;2023-03-20T14:50:35;6.80;;;4.03;;
45356;SDS011;31092;51.924;21.448;2023-03-20T14:53:16;11.43;;;3.88;;
45356;SDS011;31092;51.924;21.448;2023-03-20T14:58:33;4.15;;;3.35;;
45356;SDS011;31092;51.924;21.448;2023-03-20T15:03:49;7.10;;;3.85;;
45356;SDS011;31092;51.924;21.448;2023-03-20T15:06:27;6.88;;;3.13;;
45356;SDS011;31092;51.924;21.448;2023-03-20T15:09:00;5.82;;;3.95;;
45356;SDS011;31092;51.924;21.448;2023-03-20T15:11:31;7.32;;;3.65;;
45356;SDS011;31092;51.924;21.448;2023-03-20T15:13:58;5.97;;;3.28;;
45356;SDS011;31092;51.924;21.448;2023-03-20T15:16:28;5.88;;;3.53;;
45356;SDS011;31092;51.924;21.448;2023-03-20T15:18:59;6.65;;;4.28;;
45356;SDS011;31092;51.924;21.448;2023-03-20T15:21:32;6.78;;;4.57;;
45356;SDS011;31092;51.924;21.448;2023-03-20T15:24:18;5.97;;;3.15;;
45356;SDS011;31092;51.924;21.448;2023-03-20T15:26:54;4.57;;;3.30;;
45356;SDS011;31092;51.924;21.448;2023-03-20T15:29:23;5.97;;;2.72;;
45356;SDS011;31092;51.924;21.448;2023-03-20T15:31:50;5.75;;;4.03;;
45356;SDS011;31092;51.924;21.448;2023-03-20T15:34:22;10.70;;;4.50;;
45356;SDS011;31092;51.924;21.448;2023-03-20T15:36:55;3.33;;;3.03;;
45356;SDS011;31092;51.924;21.448;2023-03-20T15:39:29;6.75;;;3.88;;
45356;SDS011;31092;51.924;21.448;2023-03-20T15:42:14;6.78;;;3.90;;
45356;SDS011;31092;51.924;21.448;2023-03-20T15:44:42;7.05;;;4.25;;
45356;SDS011;31092;51.924;21.448;2023-03-20T15:47:17;6.47;;;4.57;;
45356;SDS011;31092;51.924;21.448;2023-03-20T15:49:50;8.27;;;4.90;;
45356;SDS011;31092;51.924;21.448;2023-03-20T15:55:05;7.25;;;4.32;;
45356;SDS011;31092;51.924;21.448;2023-03-20T15:57:37;7.00;;;4.65;;
45356;SDS011;31092;51.924;21.448;2023-03-20T16:00:11;8.15;;;4.68;;
45356;SDS011;31092;51.924;21.448;2023-03-20T16:02:42;9.05;;;5.20;;
45356;SDS011;31092;51.924;21.448;2023-03-20T16:05:14;9.90;;;4.32;;
45356;SDS011;31092;51.924;21.448;2023-03-20T16:07:49;7.55;;;4.65;;
45356;SDS011;31092;51.924;21.448;2023-03-20T16:10:48;10.07;;;5.68;;
45356;SDS011;31092;51.924;21.448;2023-03-20T16:13:11;8.60;;;3.88;;
45356;SDS011;31092;51.924;21.448;2023-03-20T16:15:44;6.85;;;4.13;;
45356;SDS011;31092;51.924;21.448;2023-03-20T16:18:13;7.70;;;4.13;;
45356;SDS011;31092;51.924;21.448;2023-03-20T16:20:52;9.63;;;5.18;;
45356;SDS011;31092;51.924;21.448;2023-03-20T16:26:04;4.72;;;3.83;;
45356;SDS011;31092;51.924;21.448;2023-03-20T16:28:34;5.80;;;4.03;;
45356;SDS011;31092;51.924;21.448;2023-03-20T16:31:17;7.32;;;3.92;;
45356;SDS011;31092;51.924;21.448;2023-03-20T16:33:46;7.50;;;4.93;;
45356;SDS011;31092;51.924;21.448;2023-03-20T16:36:16;4.30;;;3.80;;
45356;SDS011;31092;51.924;21.448;2023-03-20T16:39:00;9.85;;;5.10;;
45356;SDS011;31092;51.924;21.448;2023-03-20T16:41:34;11.88;;;5.03;;
45356;SDS011;31092;51.924;21.448;2023-03-20T16:44:17;7.25;;;5.05;;
45356;SDS011;31092;51.924;21.448;2023-03-20T16:52:10;6.15;;;4.60;;
45356;SDS011;31092;51.924;21.448;2023-03-20T16:54:38;8.88;;;5.03;;
45356;SDS011;31092;51.924;21.448;2023-03-20T16:57:08;8.20;;;4.68;;
45356;SDS011;31092;51.924;21.448;2023-03-20T16:59:39;9.98;;;5.72;;
45356;SDS011;31092;51.924;21.448;2023-03-20T17:04:48;9.80;;;5.65;;
45356;SDS011;31092;51.924;21.448;2023-03-20T17:07:14;8.98;;;5.20;;
45356;SDS011;31092;51.924;21.448;2023-03-20T17:12:18;10.32;;;6.25;;
45356;SDS011;31092;51.924;21.448;2023-03-20T17:14:43;9.63;;;4.75;;
45356;SDS011;31092;51.924;21.448;2023-03-20T17:17:12;10.48;;;6.30;;
45356;SDS011;31092;51.924;21.448;2023-03-20T17:19:40;8.77;;;6.07;;
45356;SDS011;31092;51.924;21.448;2023-03-20T17:22:16;8.68;;;5.65;;
45356;SDS011;31092;51.924;21.448;2023-03-20T17:24:46;7.07;;;5.78;;
45356;SDS011;31092;51.924;21.448;2023-03-20T17:27:12;7.10;;;4.35;;
45356;SDS011;31092;51.924;21.448;2023-03-20T17:29:41;7.10;;;5.40;;
45356;SDS011;31092;51.924;21.448;2023-03-20T17:32:10;13.27;;;6.15;;
45356;SDS011;31092;51.924;21.448;2023-03-20T17:34:40;9.05;;;5.07;;
45356;SDS011;31092;51.924;21.448;2023-03-20T17:37:14;9.05;;;4.78;;
45356;SDS011;31092;51.924;21.448;2023-03-20T17:39:48;8.60;;;4.85;;
45356;SDS011;31092;51.924;21.448;2023-03-20T17:42:18;11.80;;;5.80;;
45356;SDS011;31092;51.924;21.448;2023-03-20T17:44:50;8.80;;;4.28;;
45356;SDS011;31092;51.924;21.448;2023-03-20T17:47:18;8.15;;;4.97;;
45356;SDS011;31092;51.924;21.448;2023-03-20T17:49:45;13.93;;;4.40;;
45356;SDS011;31092;51.924;21.448;2023-03-20T17:52:15;6.65;;;3.97;;
45356;SDS011;31092;51.924;21.448;2023-03-20T17:54:43;6.93;;;4.63;;
45356;SDS011;31092;51.924;21.448;2023-03-20T17:57:12;7.70;;;4.60;;
45356;SDS011;31092;51.924;21.448;2023-03-20T17:59:45;6.93;;;4.30;;
45356;SDS011;31092;51.924;21.448;2023-03-20T18:02:11;7.32;;;4.70;;
45356;SDS011;31092;51.924;21.448;2023-03-20T18:04:36;7.18;;;4.88;;
45356;SDS011;31092;51.924;21.448;2023-03-20T18:07:02;8.52;;;5.10;;
45356;SDS011;31092;51.924;21.448;2023-03-20T18:09:28;6.65;;;4.97;;
45356;SDS011;31092;51.924;21.448;2023-03-20T18:11:55;7.22;;;4.00;;
45356;SDS011;31092;51.924;21.448;2023-03-20T18:14:21;6.75;;;4.60;;
45356;SDS011;31092;51.924;21.448;2023-03-20T18:16:47;6.45;;;4.75;;
45356;SDS011;31092;51.924;21.448;2023-03-20T18:19:26;11.77;;;5.13;;
45356;SDS011;31092;51.924;21.448;2023-03-20T18:21:53;7.55;;;4.95;;
45356;SDS011;31092;51.924;21.448;2023-03-20T18:24:20;5.88;;;3.83;;
45356;SDS011;31092;51.924;21.448;2023-03-20T18:26:46;5.57;;;3.67;;
45356;SDS011;31092;51.924;21.448;2023-03-20T18:29:12;6.05;;;4.07;;
45356;SDS011;31092;51.924;21.448;2023-03-20T18:31:38;7.70;;;5.05;;
45356;SDS011;31092;51.924;21.448;2023-03-20T18:34:05;11.07;;;5.50;;
45356;SDS011;31092;51.924;21.448;2023-03-20T18:36:31;9.20;;;3.97;;
45356;SDS011;31092;51.924;21.448;2023-03-20T18:38:57;4.72;;;4.18;;
45356;SDS011;31092;51.924;21.448;2023-03-20T18:41:23;4.90;;;4.10;;
45356;SDS011;31092;51.924;21.448;2023-03-20T18:43:49;11.52;;;4.88;;
45356;SDS011;31092;51.924;21.448;2023-03-20T18:46:19;7.50;;;3.83;;
45356;SDS011;31092;51.924;21.448;2023-03-20T18:48:46;7.18;;;3.95;;
45356;SDS011;31092;51.924;21.448;2023-03-20T18:51:12;6.18;;;4.32;;
45356;SDS011;31092;51.924;21.448;2023-03-20T18:53:38;4.45;;;3.60;;
45356;SDS011;31092;51.924;21.448;2023-03-20T18:56:18;6.10;;;4.43;;
45356;SDS011;31092;51.924;21.448;2023-03-20T19:01:11;5.00;;;3.28;;
45356;SDS011;31092;51.924;21.448;2023-03-20T19:03:37;5.75;;;3.15;;
45356;SDS011;31092;51.924;21.448;2023-03-20T19:06:06;6.10;;;3.55;;
45356;SDS011;31092;51.924;21.448;2023-03-20T19:08:37;13.25;;;3.80;;
45356;SDS011;31092;51.924;21.448;2023-03-20T19:11:03;6.07;;;3.45;;